createdAt,value
2018-06-19T00:02:10.633Z,4.55
2018-06-19T00:04:40.418Z,3.53
2018-06-19T00:07:08.761Z,3.67
2018-06-19T00:09:37.753Z,3.87
2018-06-19T00:12:08.039Z,5.80
2018-06-19T00:14:36.666Z,4.07
2018-06-19T00:17:05.001Z,4.63
2018-06-19T00:19:36.028Z,4.83
2018-06-19T00:22:05.148Z,10.83
2018-06-19T00:24:34.552Z,7.63
2018-06-19T00:27:03.124Z,5.27
2018-06-19T00:29:31.696Z,7.17
2018-06-19T00:32:00.576Z,7.25
2018-06-19T00:34:29.994Z,5.77
2018-06-19T00:36:58.725Z,4.63
2018-06-19T00:39:27.278Z,5.12
2018-06-19T00:41:58.622Z,4.40
2018-06-19T00:44:27.292Z,7.17
2018-06-19T00:46:56.697Z,5.03
2018-06-19T00:49:25.861Z,4.30
2018-06-19T00:51:55.108Z,5.45
2018-06-19T00:54:23.791Z,4.60
2018-06-19T00:56:56.254Z,3.73
2018-06-19T00:59:25.663Z,6.00
2018-06-19T01:01:55.097Z,7.53
2018-06-19T01:04:23.333Z,4.03
2018-06-19T01:06:53.237Z,5.62
2018-06-19T01:09:22.789Z,5.35
2018-06-19T01:11:53.139Z,5.65
2018-06-19T01:14:22.416Z,4.67
2018-06-19T01:16:50.729Z,7.10
2018-06-19T01:19:19.415Z,5.47
2018-06-19T01:21:47.791Z,7.63
2018-06-19T01:24:16.587Z,10.13
2018-06-19T01:26:45.745Z,8.18
2018-06-19T01:29:14.664Z,8.87
2018-06-19T01:31:43.866Z,8.50
2018-06-19T01:34:12.519Z,8.75
2018-06-19T01:36:41.190Z,6.23
2018-06-19T01:39:11.669Z,14.23
2018-06-19T01:41:40.607Z,8.93
2018-06-19T01:44:08.997Z,6.47
2018-06-19T01:46:37.349Z,8.47
2018-06-19T01:49:09.215Z,7.93
2018-06-19T01:51:37.581Z,7.27
2018-06-19T01:54:07.147Z,6.77
2018-06-19T01:56:37.860Z,7.60
2018-06-19T01:59:07.372Z,5.50
2018-06-19T02:01:36.204Z,5.62
2018-06-19T02:04:05.242Z,6.80
2018-06-19T02:06:33.777Z,6.03
2018-06-19T02:09:02.066Z,5.80
2018-06-19T02:11:31.816Z,6.07
2018-06-19T02:14:05.984Z,6.35
2018-06-19T02:16:36.165Z,5.80
2018-06-19T02:19:06.368Z,7.83
2018-06-19T02:21:37.397Z,10.00
2018-06-19T02:24:05.749Z,5.67
2018-06-19T02:26:34.884Z,5.50
2018-06-19T02:29:03.410Z,5.87
2018-06-19T02:31:31.937Z,5.77
2018-06-19T02:34:01.108Z,5.40
2018-06-19T02:36:29.649Z,7.10
2018-06-19T02:38:59.417Z,6.27
2018-06-19T02:41:28.516Z,7.10
2018-06-19T02:43:58.259Z,6.87
2018-06-19T02:46:26.999Z,7.80
2018-06-19T02:48:55.227Z,7.73
2018-06-19T02:51:24.030Z,6.90
2018-06-19T02:53:52.357Z,8.03
2018-06-19T02:56:21.489Z,8.57
2018-06-19T02:58:50.382Z,7.43
2018-06-19T03:01:18.960Z,7.60
2018-06-19T03:03:48.791Z,9.07
2018-06-19T03:06:17.774Z,6.43
2018-06-19T03:08:47.665Z,6.80
2018-06-19T03:11:16.672Z,9.83
2018-06-19T03:13:44.952Z,9.35
2018-06-19T03:16:14.427Z,9.00
2018-06-19T03:18:42.941Z,5.60
2018-06-19T03:21:12.657Z,9.23
2018-06-19T03:23:41.787Z,6.00
2018-06-19T03:26:10.426Z,6.10
2018-06-19T03:28:40.031Z,10.67
2018-06-19T03:31:09.960Z,6.83
2018-06-19T03:33:38.377Z,9.03
2018-06-19T03:36:06.686Z,8.07
2018-06-19T03:38:35.386Z,5.85
2018-06-19T03:41:04.693Z,6.83
2018-06-19T03:43:35.556Z,7.30
2018-06-19T03:46:03.989Z,8.23
2018-06-19T03:48:33.284Z,9.50
2018-06-19T03:51:02.420Z,5.87
2018-06-19T03:53:30.747Z,6.17
2018-06-19T03:56:01.416Z,6.75
2018-06-19T03:58:30.078Z,7.40
2018-06-19T04:01:01.818Z,7.53
2018-06-19T04:03:30.116Z,7.57
2018-06-19T04:05:58.763Z,6.77
2018-06-19T04:08:27.485Z,7.27
2018-06-19T04:10:55.826Z,7.53
2018-06-19T04:13:24.824Z,5.62
2018-06-19T04:15:53.569Z,8.23
2018-06-19T04:18:22.248Z,7.43
2018-06-19T04:20:50.664Z,5.57
2018-06-19T04:23:18.952Z,4.53
2018-06-19T04:25:47.330Z,7.13
2018-06-19T04:28:15.704Z,6.05
2018-06-19T04:30:44.014Z,7.37
2018-06-19T04:33:12.640Z,4.53
2018-06-19T04:35:41.648Z,5.60
2018-06-19T04:38:10.835Z,5.25
2018-06-19T04:40:39.418Z,4.70
2018-06-19T04:43:07.707Z,4.67
2018-06-19T04:45:36.056Z,4.50
2018-06-19T04:48:05.037Z,4.57
2018-06-19T04:50:34.043Z,4.83
2018-06-19T04:53:02.427Z,5.23
2018-06-19T04:55:31.965Z,5.47
2018-06-19T04:58:01.614Z,7.85
2018-06-19T05:00:29.924Z,4.47
2018-06-19T05:02:58.983Z,4.37
2018-06-19T05:05:27.233Z,3.80
2018-06-19T05:07:55.408Z,5.00
2018-06-19T05:10:23.529Z,4.30
2018-06-19T05:12:51.746Z,4.33
2018-06-19T05:15:19.820Z,4.00
2018-06-19T05:17:47.956Z,3.35
2018-06-19T05:20:16.095Z,3.70
2018-06-19T05:22:44.278Z,3.40
2018-06-19T05:25:12.354Z,5.50
2018-06-19T05:27:40.425Z,3.67
2018-06-19T05:30:08.497Z,4.17
2018-06-19T05:32:36.687Z,4.03
2018-06-19T05:35:04.948Z,4.90
2018-06-19T05:37:33.318Z,9.73
2018-06-19T05:40:02.423Z,3.87
2018-06-19T05:42:30.498Z,6.20
2018-06-19T05:44:58.568Z,8.03
2018-06-19T05:47:26.656Z,6.90
2018-06-19T05:49:54.743Z,7.53
2018-06-19T05:52:22.903Z,6.33
2018-06-19T05:54:51.079Z,12.87
2018-06-19T05:57:19.340Z,7.43
2018-06-19T05:59:47.465Z,13.53
2018-06-19T06:02:15.567Z,8.47
2018-06-19T06:04:43.913Z,18.93
2018-06-19T06:07:12.160Z,14.17
2018-06-19T06:09:41.793Z,10.30
2018-06-19T06:12:10.529Z,17.77
2018-06-19T06:14:38.744Z,13.23
2018-06-19T06:17:07.009Z,21.00
2018-06-19T06:19:35.365Z,18.00
2018-06-19T06:22:03.899Z,13.00
2018-06-19T06:24:32.441Z,15.00
2018-06-19T06:27:00.885Z,13.77
2018-06-19T06:29:29.196Z,18.47
2018-06-19T06:31:57.456Z,22.67
2018-06-19T06:34:25.640Z,7.40
2018-06-19T06:36:53.721Z,9.83
2018-06-19T06:39:21.848Z,9.90
2018-06-19T06:41:50.143Z,8.15
2018-06-19T06:44:18.341Z,6.15
2018-06-19T06:46:46.566Z,6.50
2018-06-19T06:49:14.673Z,9.10
2018-06-19T06:51:44.500Z,4.73
2018-06-19T06:54:12.736Z,6.07
2018-06-19T06:56:40.852Z,2.40
2018-06-19T06:59:09.120Z,4.42
2018-06-19T07:01:37.439Z,3.13
2018-06-19T07:04:09.152Z,4.97
2018-06-19T07:06:37.498Z,9.33
2018-06-19T07:09:08.406Z,6.20
2018-06-19T07:11:36.605Z,7.53
2018-06-19T07:14:05.701Z,3.98
2018-06-19T07:16:34.076Z,3.03
2018-06-19T07:19:02.380Z,3.33
2018-06-19T07:21:30.643Z,5.67
2018-06-19T07:23:59.933Z,3.33
2018-06-19T07:26:28.931Z,3.27
2018-06-19T07:28:57.160Z,11.33
2018-06-19T07:31:25.411Z,3.10
2018-06-19T07:33:54.186Z,2.77
2018-06-19T07:36:24.341Z,3.03
2018-06-19T07:38:52.642Z,5.63
2018-06-19T07:41:20.925Z,7.83
2018-06-19T07:43:49.252Z,6.63
2018-06-19T07:46:18.582Z,2.30
2018-06-19T07:48:46.831Z,5.53
2018-06-19T07:51:15.454Z,4.63
2018-06-19T07:53:43.605Z,2.58
2018-06-19T07:56:11.702Z,2.53
2018-06-19T07:58:40.980Z,1.90
2018-06-19T08:01:10.275Z,2.50
2018-06-19T08:03:38.730Z,4.50
2018-06-19T08:06:07.104Z,6.70
2018-06-19T08:08:35.441Z,3.17
2018-06-19T08:11:03.680Z,3.20
2018-06-19T08:13:32.368Z,2.30
2018-06-19T08:16:01.996Z,5.70
2018-06-19T08:18:32.377Z,7.37
2018-06-19T08:21:01.197Z,6.77
2018-06-19T08:23:32.076Z,7.25
2018-06-19T08:26:05.494Z,3.30
2018-06-19T08:28:34.589Z,3.42
2018-06-19T08:31:03.058Z,6.28
2018-06-19T08:33:31.709Z,3.00
2018-06-19T08:35:59.940Z,2.35
2018-06-19T08:38:28.160Z,2.40
2018-06-19T08:40:56.255Z,2.40
2018-06-19T08:43:24.369Z,4.43
2018-06-19T08:45:52.624Z,3.57
2018-06-19T08:48:20.860Z,1.87
2018-06-19T08:50:49.171Z,2.00
2018-06-19T08:53:17.386Z,1.92
2018-06-19T08:55:45.693Z,4.00
2018-06-19T08:58:13.880Z,3.73
2018-06-19T09:00:42.099Z,2.00
2018-06-19T09:03:11.581Z,4.03
2018-06-19T09:05:39.821Z,3.47
2018-06-19T09:08:09.074Z,2.90
2018-06-19T09:10:37.163Z,1.90
2018-06-19T09:13:05.472Z,5.30
2018-06-19T09:15:33.656Z,1.90
2018-06-19T09:18:01.758Z,4.13
2018-06-19T09:20:29.967Z,3.20
2018-06-19T09:22:58.086Z,4.20
2018-06-19T09:25:26.333Z,5.50
2018-06-19T09:27:54.824Z,2.63
2018-06-19T09:30:23.127Z,1.93
2018-06-19T09:32:51.244Z,10.43
2018-06-19T09:35:19.340Z,2.90
2018-06-19T09:37:47.529Z,9.23
2018-06-19T09:40:15.684Z,2.53
2018-06-19T09:42:44.633Z,3.77
2018-06-19T09:45:12.922Z,4.43
2018-06-19T09:47:41.254Z,2.10
2018-06-19T09:50:10.483Z,2.52
2018-06-19T09:52:38.659Z,3.43
2018-06-19T09:55:06.931Z,8.40
2018-06-19T09:57:35.088Z,2.83
2018-06-19T10:00:03.286Z,3.33
2018-06-19T10:02:31.439Z,4.60
2018-06-19T10:04:59.533Z,2.53
2018-06-19T10:07:27.742Z,2.00
2018-06-19T10:09:55.978Z,2.67
2018-06-19T10:12:24.249Z,1.67
2018-06-19T10:14:52.448Z,3.27
2018-06-19T10:17:20.659Z,2.10
2018-06-19T10:19:48.733Z,4.83
2018-06-19T10:22:16.995Z,2.67
2018-06-19T10:24:45.584Z,2.52
2018-06-19T10:27:13.725Z,3.80
2018-06-19T10:29:41.998Z,3.30
2018-06-19T10:32:10.187Z,3.20
2018-06-19T10:34:38.365Z,6.33
2018-06-19T10:37:06.673Z,3.90
2018-06-19T10:39:34.921Z,2.10
2018-06-19T10:42:03.180Z,2.83
2018-06-19T10:44:31.364Z,3.03
2018-06-19T10:46:59.448Z,3.73
2018-06-19T10:49:27.524Z,3.10
2018-06-19T10:51:55.599Z,4.90
2018-06-19T10:54:23.780Z,2.73
2018-06-19T10:56:52.065Z,3.40
2018-06-19T10:59:20.238Z,6.23
2018-06-19T11:01:48.376Z,3.20
2018-06-19T11:04:17.292Z,1.80
2018-06-19T11:06:45.439Z,1.80
2018-06-19T11:09:13.784Z,2.40
2018-06-19T11:11:42.166Z,3.00
2018-06-19T11:14:10.301Z,1.83
2018-06-19T11:16:38.801Z,1.50
2018-06-19T11:19:07.104Z,2.87
2018-06-19T11:21:35.182Z,2.20
2018-06-19T11:24:03.290Z,17.57
2018-06-19T11:26:31.348Z,2.27
2018-06-19T11:28:59.488Z,3.20
2018-06-19T11:31:27.510Z,6.00
2018-06-19T11:33:56.177Z,2.17
2018-06-19T11:36:24.436Z,2.30
2018-06-19T11:38:52.655Z,1.40
2018-06-19T11:41:21.027Z,1.47
2018-06-19T11:43:49.119Z,2.30
2018-06-19T11:46:17.212Z,6.90
2018-06-19T11:48:45.293Z,2.07
2018-06-19T11:51:13.940Z,6.97
2018-06-19T11:53:42.045Z,5.40
2018-06-19T11:56:10.188Z,3.23
2018-06-19T11:58:38.377Z,3.73
2018-06-19T12:01:06.499Z,4.23
2018-06-19T12:03:34.671Z,3.93
2018-06-19T12:06:02.936Z,2.90
2018-06-19T12:08:31.096Z,2.47
2018-06-19T12:10:59.175Z,2.70
2018-06-19T12:13:28.031Z,1.90
2018-06-19T12:15:57.492Z,1.60
2018-06-19T12:18:25.796Z,1.93
2018-06-19T12:20:54.088Z,4.30
2018-06-19T12:23:22.167Z,2.33
2018-06-19T12:25:50.527Z,1.85
2018-06-19T12:28:18.665Z,2.27
2018-06-19T12:30:46.965Z,4.93
2018-06-19T12:33:15.142Z,2.83
2018-06-19T12:35:43.466Z,5.17
2018-06-19T12:38:11.560Z,3.00
2018-06-19T12:40:39.693Z,4.40
2018-06-19T12:43:07.786Z,2.80
2018-06-19T12:45:36.296Z,3.00
2018-06-19T12:48:04.548Z,2.57
2018-06-19T12:50:43.857Z,1.90
2018-06-19T12:53:23.973Z,3.00
2018-06-19T12:56:03.484Z,2.23
2018-06-19T12:58:31.760Z,3.17
2018-06-19T13:00:59.844Z,6.08
2018-06-19T13:03:39.587Z,2.23
2018-06-19T13:06:19.117Z,3.80
2018-06-19T13:08:48.127Z,2.25
2018-06-19T13:11:16.282Z,3.33
2018-06-19T13:13:55.978Z,2.02
2018-06-19T13:16:35.428Z,2.43
2018-06-19T13:19:15.009Z,1.80
2018-06-19T13:21:43.291Z,2.47
2018-06-19T13:24:11.545Z,2.97
2018-06-19T13:26:39.756Z,2.43
2018-06-19T13:29:45.735Z,5.33
2018-06-19T13:32:14.031Z,1.67
2018-06-19T13:34:42.160Z,1.73
2018-06-19T13:37:10.290Z,5.30
2018-06-19T13:39:39.123Z,2.80
2018-06-19T13:43:21.482Z,3.50
2018-06-19T13:45:49.775Z,3.73
2018-06-19T13:48:17.961Z,2.20
2018-06-19T13:50:46.276Z,1.77
2018-06-19T13:53:14.360Z,2.40
2018-06-19T13:57:20.007Z,3.00
2018-06-19T13:59:48.408Z,2.80
2018-06-19T14:02:16.883Z,1.83
2018-06-19T14:04:45.267Z,1.60
2018-06-19T14:07:13.461Z,6.90
2018-06-19T14:09:52.785Z,2.23
2018-06-19T14:12:32.381Z,1.60
2018-06-19T14:15:00.472Z,3.03
2018-06-19T14:17:28.535Z,1.80
2018-06-19T14:19:56.627Z,2.62
2018-06-19T14:22:26.337Z,2.33
2018-06-19T14:24:54.513Z,1.70
2018-06-19T14:27:22.887Z,2.60
2018-06-19T14:29:50.959Z,2.00
2018-06-19T14:32:19.916Z,2.43
2018-06-19T14:34:48.003Z,3.03
2018-06-19T14:37:16.080Z,1.47
2018-06-19T14:39:44.368Z,1.30
2018-06-19T14:42:12.964Z,3.00
2018-06-19T14:44:41.088Z,4.50
2018-06-19T14:47:09.208Z,2.17
2018-06-19T14:49:37.292Z,5.10
2018-06-19T14:52:05.515Z,2.00
2018-06-19T14:54:33.725Z,1.77
2018-06-19T14:57:01.794Z,3.20
2018-06-19T14:59:29.855Z,1.87
2018-06-19T15:01:58.157Z,2.07
2018-06-19T15:04:26.440Z,1.73
2018-06-19T15:06:54.513Z,2.50
2018-06-19T15:09:22.740Z,2.03
2018-06-19T15:11:50.839Z,2.80
2018-06-19T15:14:18.911Z,1.60
2018-06-19T15:16:46.988Z,1.57
2018-06-19T15:19:15.211Z,1.57
2018-06-19T15:21:43.460Z,1.90
2018-06-19T15:24:12.479Z,7.33
2018-06-19T15:26:40.632Z,2.67
2018-06-19T15:29:08.695Z,1.50
2018-06-19T15:31:37.035Z,5.03
2018-06-19T15:34:05.103Z,3.20
2018-06-19T15:36:33.912Z,2.75
2018-06-19T15:39:02.476Z,3.00
2018-06-19T15:41:30.693Z,2.20
2018-06-19T15:43:59.600Z,1.90
2018-06-19T15:46:27.821Z,1.80
2018-06-19T15:48:56.093Z,1.60
2018-06-19T15:51:24.326Z,2.10
2018-06-19T15:53:52.415Z,3.87
2018-06-19T15:56:20.520Z,1.97
2018-06-19T15:58:48.811Z,4.40
2018-06-19T16:01:16.898Z,2.70
2018-06-19T16:03:45.046Z,2.25
2018-06-19T16:06:13.263Z,2.67
2018-06-19T16:08:41.345Z,2.20
2018-06-19T16:11:09.541Z,2.00
2018-06-19T16:13:37.635Z,1.80
2018-06-19T16:16:05.716Z,2.03
2018-06-19T16:18:33.871Z,3.20
2018-06-19T16:21:02.024Z,2.10
2018-06-19T16:23:30.499Z,2.42
2018-06-19T16:25:58.781Z,1.70
2018-06-19T16:28:27.160Z,1.70
2018-06-19T16:30:55.227Z,2.77
2018-06-19T16:33:23.540Z,1.93
2018-06-19T16:35:51.621Z,2.37
2018-06-19T16:38:19.746Z,3.83
2018-06-19T16:40:47.931Z,2.60
2018-06-19T16:43:16.028Z,4.08
2018-06-19T16:45:44.192Z,2.07
2018-06-19T16:48:12.615Z,1.80
2018-06-19T16:50:40.676Z,1.90
2018-06-19T16:53:09.127Z,2.00
2018-06-19T16:55:37.199Z,4.10
2018-06-19T16:58:05.373Z,4.03
2018-06-19T17:00:33.930Z,2.45
2018-06-19T17:03:02.010Z,2.23
2018-06-19T17:05:30.388Z,4.47
2018-06-19T17:07:58.482Z,2.83
2018-06-19T17:10:26.564Z,2.13
2018-06-19T17:12:54.652Z,3.93
2018-06-19T17:15:22.751Z,2.40
2018-06-19T17:17:51.001Z,2.50
2018-06-19T17:20:19.266Z,2.77
2018-06-19T17:22:47.336Z,4.40
2018-06-19T17:25:15.445Z,3.33
2018-06-19T17:27:44.119Z,3.13
2018-06-19T17:30:12.284Z,2.63
2018-06-19T17:32:40.452Z,4.10
2018-06-19T17:35:08.716Z,6.60
2018-06-19T17:37:36.802Z,3.00
2018-06-19T17:40:04.987Z,3.40
2018-06-19T17:42:33.060Z,2.50
2018-06-19T17:45:01.401Z,2.73
2018-06-19T17:47:29.632Z,2.80
2018-06-19T17:49:57.711Z,2.83
2018-06-19T17:52:25.839Z,3.37
2018-06-19T17:54:53.851Z,4.10
2018-06-19T17:57:21.920Z,4.08
2018-06-19T17:59:49.999Z,4.27
2018-06-19T18:02:18.076Z,5.42
2018-06-19T18:04:46.151Z,2.80
2018-06-19T18:07:14.321Z,3.50
2018-06-19T18:09:42.588Z,4.30
2018-06-19T18:12:10.672Z,4.37
2018-06-19T18:14:38.776Z,3.10
2018-06-19T18:17:06.848Z,3.00
2018-06-19T18:19:34.973Z,2.50
2018-06-19T18:22:04.040Z,3.62
2018-06-19T18:24:32.120Z,2.87
2018-06-19T18:27:00.282Z,3.87
2018-06-19T18:29:28.585Z,3.93
2018-06-19T18:31:56.734Z,5.33
2018-06-19T18:34:25.021Z,3.83
2018-06-19T18:36:53.292Z,5.50
2018-06-19T18:39:21.582Z,3.45
2018-06-19T18:41:49.716Z,3.10
2018-06-19T18:44:17.883Z,3.25
2018-06-19T18:46:46.162Z,3.60
2018-06-19T18:49:14.272Z,4.20
2018-06-19T18:51:42.320Z,3.47
2018-06-19T18:54:10.580Z,3.33
2018-06-19T18:56:38.508Z,3.73
2018-06-19T18:59:06.576Z,4.80
2018-06-19T19:01:35.187Z,3.33
2018-06-19T19:04:03.280Z,3.67
2018-06-19T19:06:31.640Z,3.10
2018-06-19T19:08:59.912Z,5.13
2018-06-19T19:11:28.157Z,3.60
2018-06-19T19:13:56.390Z,4.13
2018-06-19T19:16:30.027Z,4.42
2018-06-19T19:19:01.112Z,5.80
2018-06-19T19:21:29.341Z,3.07
2018-06-19T19:23:57.474Z,4.07
2018-06-19T19:26:30.912Z,4.27
2018-06-19T19:29:04.786Z,3.53
2018-06-19T19:31:33.238Z,2.73
2018-06-19T19:34:01.493Z,4.70
2018-06-19T19:36:36.042Z,3.90
2018-06-19T19:39:12.725Z,3.65
2018-06-19T19:41:40.960Z,5.50
2018-06-19T19:44:11.940Z,3.40
2018-06-19T19:46:45.435Z,4.90
2018-06-19T19:49:13.782Z,2.92
2018-06-19T19:51:41.869Z,3.23
2018-06-19T19:54:10.195Z,2.87
2018-06-19T19:56:43.784Z,3.80
2018-06-19T19:59:11.876Z,2.67
2018-06-19T20:01:41.327Z,3.10
2018-06-19T20:04:09.443Z,3.87
2018-06-19T20:06:37.495Z,2.50
2018-06-19T20:09:07.348Z,3.50
2018-06-19T20:11:35.768Z,3.50
2018-06-19T20:14:04.839Z,3.03
2018-06-19T20:16:33.448Z,2.57
2018-06-19T20:19:01.804Z,3.00
2018-06-19T20:21:30.724Z,2.53
2018-06-19T20:23:58.872Z,3.63
2018-06-19T20:26:27.797Z,2.93
2018-06-19T20:28:55.913Z,3.67
2018-06-19T20:31:24.009Z,4.73
2018-06-19T20:33:52.088Z,3.77
2018-06-19T20:36:20.191Z,3.33
2018-06-19T20:38:48.252Z,2.83
2018-06-19T20:41:16.384Z,2.97
2018-06-19T20:43:44.456Z,2.40
2018-06-19T20:46:12.548Z,3.57
2018-06-19T20:48:40.639Z,2.93
2018-06-19T20:51:08.792Z,4.13
2018-06-19T20:53:36.949Z,2.50
2018-06-19T20:56:05.419Z,2.40
2018-06-19T20:58:33.543Z,3.23
2018-06-19T21:01:01.702Z,5.00
2018-06-19T21:03:29.888Z,2.07
2018-06-19T21:05:58.152Z,2.10
2018-06-19T21:08:31.853Z,2.00
2018-06-19T21:11:00.050Z,2.33
2018-06-19T21:13:28.268Z,2.35
2018-06-19T21:15:56.662Z,2.97
2018-06-19T21:18:24.903Z,3.00
2018-06-19T21:20:53.116Z,4.43
2018-06-19T21:23:21.952Z,2.73
2018-06-19T21:25:50.217Z,2.87
2018-06-19T21:28:19.892Z,6.30
2018-06-19T21:30:48.104Z,5.60
2018-06-19T21:33:16.285Z,8.20
2018-06-19T21:35:44.391Z,4.23
2018-06-19T21:38:12.946Z,8.33
2018-06-19T21:40:41.209Z,5.50
2018-06-19T21:43:10.512Z,6.62
2018-06-19T21:45:38.794Z,4.50
2018-06-19T21:48:08.948Z,4.50
2018-06-19T21:50:38.145Z,7.37
2018-06-19T21:53:07.185Z,3.93
2018-06-19T21:55:35.421Z,7.70
2018-06-19T21:58:04.759Z,6.83
2018-06-19T22:02:43.797Z,6.77
2018-06-19T22:05:12.059Z,4.08
2018-06-19T22:07:42.134Z,6.45
2018-06-19T22:10:11.528Z,5.60
2018-06-19T22:12:39.821Z,7.33
2018-06-19T22:15:08.811Z,4.30
2018-06-19T22:17:37.904Z,6.57
2018-06-19T22:20:07.078Z,7.40
2018-06-19T22:22:35.369Z,8.40
2018-06-19T22:25:03.977Z,5.27
2018-06-19T22:27:32.885Z,7.40
2018-06-19T22:30:01.737Z,9.97
2018-06-19T22:32:30.555Z,5.95
2018-06-19T22:34:59.429Z,6.42
2018-06-19T22:37:28.735Z,5.30
2018-06-19T22:39:57.820Z,5.43
2018-06-19T22:42:26.520Z,10.50
2018-06-19T22:44:55.436Z,6.07
2018-06-19T22:47:24.541Z,5.70
2018-06-19T22:49:53.029Z,5.27
2018-06-19T22:52:21.450Z,5.73
2018-06-19T22:54:49.829Z,5.30
2018-06-19T22:57:18.724Z,5.20
2018-06-19T22:59:47.739Z,6.25
2018-06-19T23:02:16.288Z,5.87
2018-06-19T23:04:46.634Z,6.87
2018-06-19T23:07:15.618Z,6.00
2018-06-19T23:09:44.720Z,6.57
2018-06-19T23:12:14.384Z,7.42
2018-06-19T23:14:43.563Z,6.95
2018-06-19T23:17:12.172Z,6.00
2018-06-19T23:19:40.540Z,6.37
2018-06-19T23:22:10.757Z,8.13
2018-06-19T23:24:39.541Z,6.37
2018-06-19T23:27:08.028Z,6.57
2018-06-19T23:29:45.391Z,6.47
2018-06-19T23:32:15.118Z,6.72
2018-06-19T23:34:45.782Z,5.45
2018-06-19T23:37:14.799Z,6.00
2018-06-19T23:39:43.137Z,5.80
2018-06-19T23:42:11.985Z,6.03
2018-06-19T23:44:40.279Z,5.23
2018-06-19T23:47:10.106Z,7.10
2018-06-19T23:49:38.768Z,6.30
2018-06-19T23:52:07.051Z,5.35
2018-06-19T23:54:35.592Z,5.20
2018-06-19T23:57:05.246Z,5.53
2018-06-19T23:59:34.529Z,5.67
